createdAt,value
2023-01-17T00:01:34.011Z,2.55
2023-01-17T00:04:19.249Z,2.28
2023-01-17T00:07:04.375Z,1.45
2023-01-17T00:09:49.244Z,2.40
2023-01-17T00:12:15.808Z,1.38
2023-01-17T00:14:42.358Z,1.02
2023-01-17T00:17:08.828Z,1.88
2023-01-17T00:19:54.013Z,1.35
2023-01-17T00:22:47.730Z,2.72
2023-01-17T00:25:35.156Z,1.17
2023-01-17T00:28:01.992Z,2.17
2023-01-17T00:30:28.448Z,1.35
2023-01-17T00:32:54.951Z,1.35
2023-01-17T00:35:26.641Z,1.02
2023-01-17T00:38:10.991Z,1.38
2023-01-17T00:40:40.560Z,0.77
2023-01-17T00:43:26.678Z,0.57
2023-01-17T00:46:12.321Z,1.08
2023-01-17T00:48:58.358Z,1.17
2023-01-17T00:51:44.415Z,1.30
2023-01-17T00:54:30.316Z,3.80
2023-01-17T00:57:15.326Z,1.45
2023-01-17T01:00:00.749Z,1.33
2023-01-17T01:02:46.475Z,0.60
2023-01-17T01:05:32.065Z,5.78
2023-01-17T01:08:17.786Z,1.27
2023-01-17T01:11:04.016Z,1.65
2023-01-17T01:13:50.062Z,1.60
2023-01-17T01:16:36.370Z,2.03
2023-01-17T01:19:22.822Z,1.50
2023-01-17T01:22:08.440Z,0.22
2023-01-17T01:24:53.743Z,3.90
2023-01-17T01:27:38.802Z,2.17
2023-01-17T01:30:24.525Z,3.42
2023-01-17T01:33:09.613Z,1.60
2023-01-17T01:35:37.029Z,3.10
2023-01-17T01:38:03.883Z,3.58
2023-01-17T01:40:30.466Z,2.05
2023-01-17T01:42:59.900Z,2.47
2023-01-17T01:48:07.022Z,2.33
2023-01-17T01:50:37.433Z,2.22
2023-01-17T01:53:06.198Z,4.20
2023-01-17T01:55:42.184Z,1.90
2023-01-17T01:58:13.201Z,1.45
2023-01-17T02:00:41.025Z,2.33
2023-01-17T02:03:21.582Z,1.42
2023-01-17T02:05:48.433Z,1.42
2023-01-17T02:08:17.963Z,3.55
2023-01-17T02:10:44.889Z,3.15
2023-01-17T02:13:14.987Z,1.48
2023-01-17T02:15:47.492Z,16.38
2023-01-17T02:18:24.804Z,6.85
2023-01-17T02:21:13.008Z,2.10
2023-01-17T02:24:15.574Z,0.75
2023-01-17T02:26:55.641Z,2.72
2023-01-17T02:29:49.757Z,2.03
2023-01-17T02:35:00.047Z,9.00
2023-01-17T02:37:40.104Z,1.65
2023-01-17T02:40:12.900Z,0.82
2023-01-17T02:42:46.898Z,1.05
2023-01-17T02:45:18.818Z,1.63
2023-01-17T02:47:45.972Z,1.23
2023-01-17T02:50:17.208Z,1.58
2023-01-17T02:52:57.417Z,1.33
2023-01-17T02:55:35.940Z,1.23
2023-01-17T02:58:13.185Z,1.33
2023-01-17T03:00:39.628Z,0.40
2023-01-17T03:03:33.988Z,0.77
2023-01-17T03:06:17.426Z,1.83
2023-01-17T03:08:47.548Z,0.85
2023-01-17T03:11:14.918Z,1.10
2023-01-17T03:13:42.274Z,1.30
2023-01-17T03:16:15.107Z,2.28
2023-01-17T03:18:42.055Z,1.13
2023-01-17T03:21:08.656Z,1.95
2023-01-17T03:23:35.139Z,0.43
2023-01-17T03:26:01.611Z,0.52
2023-01-17T03:28:28.111Z,1.35
2023-01-17T03:30:54.731Z,1.13
2023-01-17T03:33:21.308Z,1.02
2023-01-17T03:35:50.847Z,1.05
2023-01-17T03:38:17.425Z,1.40
2023-01-17T03:40:43.917Z,2.53
2023-01-17T03:43:10.401Z,1.38
2023-01-17T03:45:37.670Z,1.80
2023-01-17T03:48:04.633Z,2.53
2023-01-17T03:50:31.607Z,2.53
2023-01-17T03:52:58.249Z,2.60
2023-01-17T03:55:24.791Z,3.65
2023-01-17T03:57:51.379Z,2.72
2023-01-17T04:00:18.156Z,4.60
2023-01-17T04:02:44.628Z,6.03
2023-01-17T04:05:11.360Z,5.30
2023-01-17T04:07:37.866Z,4.75
2023-01-17T04:10:04.925Z,6.30
2023-01-17T04:12:31.497Z,4.40
2023-01-17T04:14:58.023Z,2.85
2023-01-17T04:17:24.875Z,2.72
2023-01-17T04:19:51.676Z,3.83
2023-01-17T04:22:18.097Z,2.78
2023-01-17T04:24:44.513Z,3.08
2023-01-17T04:27:14.203Z,3.45
2023-01-17T04:29:40.700Z,8.05
2023-01-17T04:32:07.235Z,2.83
2023-01-17T04:34:33.719Z,3.72
2023-01-17T04:37:00.300Z,5.63
2023-01-17T04:39:26.726Z,3.10
2023-01-17T04:41:53.239Z,3.10
2023-01-17T04:44:19.692Z,4.00
2023-01-17T04:46:46.163Z,2.28
2023-01-17T04:49:12.668Z,5.63
2023-01-17T04:51:39.123Z,1.80
2023-01-17T04:54:05.585Z,2.20
2023-01-17T04:56:32.038Z,3.00
2023-01-17T04:58:58.545Z,1.95
2023-01-17T05:01:25.716Z,3.47
2023-01-17T05:03:52.379Z,3.40
2023-01-17T05:06:18.803Z,5.28
2023-01-17T05:08:45.219Z,2.45
2023-01-17T05:11:12.828Z,1.02
2023-01-17T05:13:39.323Z,3.35
2023-01-17T05:16:06.044Z,5.65
2023-01-17T05:18:32.498Z,1.33
2023-01-17T05:21:05.542Z,3.33
2023-01-17T05:23:32.943Z,3.65
2023-01-17T05:25:59.537Z,4.38
2023-01-17T05:28:26.085Z,3.22
2023-01-17T05:30:52.603Z,2.88
2023-01-17T05:33:19.103Z,3.20
2023-01-17T05:35:45.572Z,4.50
2023-01-17T05:38:12.094Z,4.45
2023-01-17T05:40:38.566Z,3.05
2023-01-17T05:43:05.089Z,4.00
2023-01-17T05:45:33.280Z,4.35
2023-01-17T05:48:00.296Z,2.80
2023-01-17T05:50:30.434Z,8.60
2023-01-17T05:53:02.982Z,6.10
2023-01-17T05:55:31.530Z,7.22
2023-01-17T05:57:58.300Z,6.10
2023-01-17T06:00:25.409Z,6.80
2023-01-17T06:02:57.124Z,6.22
2023-01-17T06:05:24.224Z,7.43
2023-01-17T06:07:50.937Z,6.25
2023-01-17T06:10:19.139Z,6.60
2023-01-17T06:12:46.685Z,3.33
2023-01-17T06:15:15.192Z,7.47
2023-01-17T06:17:41.955Z,7.22
2023-01-17T06:20:10.331Z,7.53
2023-01-17T06:22:36.734Z,11.38
2023-01-17T06:25:03.549Z,8.43
2023-01-17T06:27:29.985Z,9.80
2023-01-17T06:29:56.447Z,5.97
2023-01-17T06:32:22.932Z,4.32
2023-01-17T06:34:49.349Z,10.15
2023-01-17T06:37:15.861Z,10.02
2023-01-17T06:39:42.538Z,9.07
2023-01-17T06:42:09.071Z,8.77
2023-01-17T06:44:35.567Z,9.07
2023-01-17T06:47:02.233Z,8.55
2023-01-17T06:49:28.709Z,9.85
2023-01-17T06:51:55.268Z,8.55
2023-01-17T06:54:21.761Z,9.35
2023-01-17T06:56:48.377Z,13.05
2023-01-17T06:59:14.815Z,11.15
2023-01-17T07:01:41.556Z,10.65
2023-01-17T07:04:08.403Z,8.02
2023-01-17T07:06:38.061Z,10.57
2023-01-17T07:09:04.811Z,10.93
2023-01-17T07:11:31.885Z,11.32
2023-01-17T07:13:58.395Z,11.80
2023-01-17T07:16:24.926Z,12.27
2023-01-17T07:18:51.820Z,12.00
2023-01-17T07:21:18.380Z,12.52
2023-01-17T07:23:44.910Z,15.93
2023-01-17T07:26:11.409Z,10.85
2023-01-17T07:28:37.837Z,11.07
2023-01-17T07:31:06.906Z,11.02
2023-01-17T07:33:34.931Z,11.10
2023-01-17T07:36:09.255Z,12.55
2023-01-17T07:38:36.198Z,10.93
2023-01-17T07:41:03.215Z,13.43
2023-01-17T07:43:29.993Z,10.38
2023-01-17T07:45:56.703Z,11.52
2023-01-17T07:48:24.830Z,11.38
2023-01-17T07:50:56.593Z,10.63
2023-01-17T07:53:25.046Z,10.57
2023-01-17T07:55:51.774Z,15.40
2023-01-17T07:58:19.064Z,10.50
2023-01-17T08:00:45.785Z,9.20
2023-01-17T08:03:36.679Z,9.48
2023-01-17T08:06:03.420Z,10.93
2023-01-17T08:08:30.039Z,9.25
2023-01-17T08:10:56.561Z,8.88
2023-01-17T08:13:23.485Z,8.73
2023-01-17T08:15:50.629Z,10.18
2023-01-17T08:18:18.047Z,10.80
2023-01-17T08:20:45.565Z,10.10
2023-01-17T08:23:12.454Z,11.38
2023-01-17T08:25:40.282Z,13.93
2023-01-17T08:28:06.817Z,9.70
2023-01-17T08:30:33.360Z,19.33
2023-01-17T08:33:00.496Z,9.15
2023-01-17T08:35:27.916Z,11.70
2023-01-17T08:37:55.846Z,8.57
2023-01-17T08:40:22.829Z,9.93
2023-01-17T08:43:00.056Z,9.20
2023-01-17T08:45:28.069Z,9.07
2023-01-17T08:47:55.088Z,8.15
2023-01-17T08:50:21.658Z,11.90
2023-01-17T08:52:49.628Z,10.02
2023-01-17T08:55:17.242Z,10.73
2023-01-17T08:57:43.936Z,10.23
2023-01-17T09:00:11.199Z,7.60
2023-01-17T09:02:37.720Z,8.95
2023-01-17T09:05:04.657Z,11.05
2023-01-17T09:07:31.366Z,8.32
2023-01-17T09:09:58.021Z,11.75
2023-01-17T09:12:24.965Z,10.57
2023-01-17T09:14:51.718Z,8.88
2023-01-17T09:17:18.320Z,9.73
2023-01-17T09:19:47.514Z,8.00
2023-01-17T09:22:14.590Z,9.55
2023-01-17T09:24:42.175Z,13.45
2023-01-17T09:27:10.153Z,10.65
2023-01-17T09:29:36.812Z,8.82
2023-01-17T09:32:03.833Z,11.63
2023-01-17T09:34:30.722Z,7.55
2023-01-17T09:36:57.665Z,11.15
2023-01-17T09:39:24.571Z,8.70
2023-01-17T09:42:31.751Z,11.05
2023-01-17T09:44:59.410Z,8.77
2023-01-17T09:47:42.004Z,9.05
2023-01-17T09:50:27.111Z,8.60
2023-01-17T09:53:01.302Z,10.90
2023-01-17T09:55:37.002Z,12.30
2023-01-17T09:58:12.003Z,7.55
2023-01-17T10:00:42.873Z,10.05
2023-01-17T10:03:40.951Z,8.15
2023-01-17T10:06:16.731Z,8.32
2023-01-17T10:08:53.397Z,8.20
2023-01-17T10:11:57.552Z,13.50
2023-01-17T10:14:27.094Z,8.55
2023-01-17T10:16:59.993Z,7.32
2023-01-17T10:19:32.632Z,10.35
2023-01-17T10:22:10.683Z,11.75
2023-01-17T10:24:53.330Z,8.68
2023-01-17T10:27:40.246Z,8.75
2023-01-17T10:30:42.594Z,11.68
2023-01-17T10:33:20.073Z,9.32
2023-01-17T10:36:03.913Z,9.23
2023-01-17T10:38:33.949Z,9.00
2023-01-17T10:41:22.091Z,9.77
2023-01-17T10:43:57.492Z,11.20
2023-01-17T10:48:57.863Z,9.23
2023-01-17T10:51:50.256Z,9.52
2023-01-17T10:54:28.361Z,7.45
2023-01-17T10:56:55.144Z,9.18
2023-01-17T10:59:37.263Z,10.48
2023-01-17T11:02:35.426Z,9.30
2023-01-17T11:05:12.337Z,11.50
2023-01-17T11:07:40.184Z,8.43
2023-01-17T11:10:40.190Z,11.10
2023-01-17T11:13:21.400Z,9.23
2023-01-17T11:15:52.163Z,7.68
2023-01-17T11:18:21.097Z,9.48
2023-01-17T11:20:49.899Z,9.77
2023-01-17T11:23:22.503Z,9.88
2023-01-17T11:25:57.983Z,8.73
2023-01-17T11:28:30.742Z,10.25
2023-01-17T11:30:58.692Z,9.25
2023-01-17T11:33:45.137Z,9.32
2023-01-17T11:36:19.290Z,8.02
2023-01-17T11:39:03.028Z,8.40
2023-01-17T11:41:38.048Z,11.23
2023-01-17T11:44:20.841Z,11.02
2023-01-17T11:46:47.566Z,7.80
2023-01-17T11:49:25.333Z,9.25
2023-01-17T11:51:56.434Z,9.27
2023-01-17T11:54:33.392Z,6.55
2023-01-17T11:57:01.809Z,12.85
2023-01-17T11:59:42.395Z,9.68
2023-01-17T12:02:33.124Z,13.27
2023-01-17T12:05:37.488Z,6.78
2023-01-17T12:08:31.509Z,11.88
2023-01-17T12:11:14.385Z,6.88
2023-01-17T12:14:06.456Z,6.05
2023-01-17T12:16:59.947Z,9.43
2023-01-17T12:19:32.482Z,10.98
2023-01-17T12:22:17.930Z,10.13
2023-01-17T12:24:47.521Z,8.38
2023-01-17T12:27:51.150Z,7.10
2023-01-17T12:30:32.696Z,11.63
2023-01-17T12:33:37.816Z,7.10
2023-01-17T12:36:29.977Z,10.45
2023-01-17T12:39:01.393Z,8.35
2023-01-17T12:41:45.535Z,9.15
2023-01-17T12:44:18.065Z,9.45
2023-01-17T12:46:50.514Z,10.27
2023-01-17T12:49:41.796Z,9.93
2023-01-17T12:52:25.686Z,10.88
2023-01-17T12:55:01.912Z,10.40
2023-01-17T12:57:33.993Z,7.60
2023-01-17T13:00:26.771Z,12.13
2023-01-17T13:03:11.545Z,7.72
2023-01-17T13:05:46.010Z,10.15
2023-01-17T13:08:22.131Z,6.07
2023-01-17T13:10:57.591Z,9.95
2023-01-17T13:13:26.803Z,8.35
2023-01-17T13:16:21.311Z,7.95
2023-01-17T13:18:49.298Z,12.23
2023-01-17T13:21:25.043Z,6.25
2023-01-17T13:23:59.232Z,7.88
2023-01-17T13:26:47.615Z,8.20
2023-01-17T13:29:39.708Z,9.65
2023-01-17T13:32:14.613Z,10.65
2023-01-17T13:35:19.722Z,8.57
2023-01-17T13:37:56.064Z,8.02
2023-01-17T13:40:39.795Z,8.52
2023-01-17T13:43:14.687Z,6.00
2023-01-17T13:45:41.665Z,12.20
2023-01-17T13:48:18.223Z,8.30
2023-01-17T13:50:45.004Z,7.90
2023-01-17T13:53:45.797Z,9.00
2023-01-17T13:56:35.612Z,10.52
2023-01-17T13:59:04.970Z,7.53
2023-01-17T14:01:43.142Z,7.20
2023-01-17T14:04:12.847Z,6.03
2023-01-17T14:06:44.383Z,8.23
2023-01-17T14:09:16.228Z,6.38
2023-01-17T14:11:54.678Z,5.80
2023-01-17T14:14:40.036Z,5.80
2023-01-17T14:17:28.227Z,5.72
2023-01-17T14:20:18.006Z,7.20
2023-01-17T14:22:53.647Z,11.25
2023-01-17T14:25:25.316Z,3.72
2023-01-17T14:27:55.407Z,5.25
2023-01-17T14:30:37.076Z,7.45
2023-01-17T14:33:08.875Z,7.03
2023-01-17T14:35:52.012Z,5.90
2023-01-17T14:38:22.605Z,8.20
2023-01-17T14:41:04.867Z,6.45
2023-01-17T14:43:35.061Z,5.18
2023-01-17T14:46:05.280Z,7.57
2023-01-17T14:48:32.237Z,11.18
2023-01-17T14:51:01.986Z,9.02
2023-01-17T14:53:31.483Z,6.40
2023-01-17T14:56:04.030Z,7.68
2023-01-17T14:58:36.505Z,7.25
2023-01-17T15:01:09.682Z,6.57
2023-01-17T15:03:49.141Z,12.73
2023-01-17T15:06:24.819Z,7.47
2023-01-17T15:08:54.290Z,9.10
2023-01-17T15:11:27.412Z,6.47
2023-01-17T15:13:59.366Z,10.30
2023-01-17T15:16:38.994Z,6.20
2023-01-17T15:19:14.166Z,9.82
2023-01-17T15:21:43.808Z,4.78
2023-01-17T15:24:29.530Z,6.85
2023-01-17T15:26:56.237Z,7.10
2023-01-17T15:29:32.027Z,9.55
2023-01-17T15:32:04.437Z,10.60
2023-01-17T15:34:32.680Z,4.32
2023-01-17T15:37:02.936Z,9.75
2023-01-17T15:39:37.379Z,6.53
2023-01-17T15:42:07.821Z,9.00
2023-01-17T15:44:48.111Z,5.85
2023-01-17T15:47:31.631Z,7.55
2023-01-17T15:49:59.798Z,5.68
2023-01-17T15:52:27.540Z,6.05
2023-01-17T15:55:24.152Z,6.55
2023-01-17T15:57:50.836Z,6.40
2023-01-17T16:00:20.077Z,7.88
2023-01-17T16:02:58.727Z,5.65
2023-01-17T16:05:27.833Z,8.75
2023-01-17T16:08:18.424Z,8.50
2023-01-17T16:10:45.063Z,8.32
2023-01-17T16:13:13.665Z,6.60
2023-01-17T16:15:43.212Z,6.38
2023-01-17T16:18:20.481Z,4.88
2023-01-17T16:20:51.917Z,10.18
2023-01-17T16:23:18.516Z,5.97
2023-01-17T16:25:46.362Z,10.02
2023-01-17T16:28:13.145Z,7.68
2023-01-17T16:30:40.202Z,12.93
2023-01-17T16:33:09.807Z,13.75
2023-01-17T16:35:36.917Z,8.68
2023-01-17T16:38:06.729Z,10.75
2023-01-17T16:40:43.999Z,10.05
2023-01-17T16:43:14.480Z,8.65
2023-01-17T16:45:43.348Z,12.13
2023-01-17T16:48:12.657Z,52.55
2023-01-17T16:53:15.635Z,13.13
2023-01-17T16:55:43.250Z,33.63
2023-01-17T16:58:10.350Z,21.80
2023-01-17T17:00:37.271Z,8.15
2023-01-17T17:03:04.952Z,12.93
2023-01-17T17:05:33.624Z,8.95
2023-01-17T17:08:01.319Z,6.50
2023-01-17T17:10:27.931Z,7.68
2023-01-17T17:12:55.121Z,9.93
2023-01-17T17:15:21.792Z,7.95
2023-01-17T17:17:48.668Z,9.00
2023-01-17T17:20:16.341Z,12.95
2023-01-17T17:22:50.213Z,9.93
2023-01-17T17:25:17.815Z,11.07
2023-01-17T17:27:44.487Z,8.75
2023-01-17T17:30:12.674Z,9.77
2023-01-17T17:32:39.378Z,8.57
2023-01-17T17:35:06.366Z,10.15
2023-01-17T17:37:33.633Z,8.13
2023-01-17T17:40:00.392Z,9.48
2023-01-17T17:42:27.279Z,10.50
2023-01-17T17:44:54.224Z,6.90
2023-01-17T17:47:20.915Z,10.13
2023-01-17T17:49:47.695Z,8.75
2023-01-17T17:52:14.330Z,6.07
2023-01-17T17:54:41.032Z,7.78
2023-01-17T17:57:07.899Z,10.27
2023-01-17T17:59:34.885Z,7.93
2023-01-17T18:02:02.162Z,10.05
2023-01-17T18:04:28.920Z,9.27
2023-01-17T18:06:57.430Z,9.55
2023-01-17T18:09:24.563Z,6.60
2023-01-17T18:11:51.228Z,11.77
2023-01-17T18:14:21.063Z,6.82
2023-01-17T18:16:48.453Z,6.80
2023-01-17T18:19:20.918Z,7.57
2023-01-17T18:21:49.150Z,5.90
2023-01-17T18:24:17.147Z,9.32
2023-01-17T18:26:46.213Z,6.32
2023-01-17T18:29:15.877Z,8.80
2023-01-17T18:31:46.961Z,7.07
2023-01-17T18:34:15.979Z,9.48
2023-01-17T18:36:43.868Z,12.02
2023-01-17T18:39:16.744Z,13.10
2023-01-17T18:41:43.967Z,9.80
2023-01-17T18:44:11.780Z,13.15
2023-01-17T18:46:40.191Z,12.50
2023-01-17T18:49:07.248Z,10.43
2023-01-17T18:51:35.176Z,8.02
2023-01-17T18:54:06.597Z,9.45
2023-01-17T18:56:37.416Z,17.08
2023-01-17T18:59:09.767Z,11.57
2023-01-17T19:01:36.672Z,12.35
2023-01-17T19:04:05.331Z,19.85
2023-01-17T19:06:35.280Z,23.70
2023-01-17T19:09:03.076Z,16.90
2023-01-17T19:11:30.079Z,16.80
2023-01-17T19:13:56.918Z,15.15
2023-01-17T19:16:31.001Z,18.90
2023-01-17T19:19:03.302Z,19.08
2023-01-17T19:21:30.753Z,15.18
2023-01-17T19:23:58.200Z,17.88
2023-01-17T19:26:27.420Z,16.17
2023-01-17T19:28:56.836Z,17.35
2023-01-17T19:31:26.286Z,17.80
2023-01-17T19:33:57.384Z,9.98
2023-01-17T19:36:33.895Z,12.88
2023-01-17T19:39:05.656Z,12.52
2023-01-17T19:41:35.266Z,11.35
2023-01-17T19:44:07.256Z,10.95
2023-01-17T19:46:36.769Z,12.35
2023-01-17T19:51:35.148Z,11.50
2023-01-17T19:54:04.316Z,11.55
2023-01-17T19:56:31.694Z,11.80
2023-01-17T19:59:01.980Z,11.52
2023-01-17T20:01:31.859Z,11.40
2023-01-17T20:04:00.325Z,8.07
2023-01-17T20:06:33.716Z,11.85
2023-01-17T20:09:00.667Z,13.00
2023-01-17T20:11:28.728Z,14.55
2023-01-17T20:13:57.268Z,13.05
2023-01-17T20:16:26.948Z,11.50
2023-01-17T20:18:53.930Z,14.07
2023-01-17T20:21:25.954Z,13.30
2023-01-17T20:23:54.739Z,9.65
2023-01-17T20:26:24.351Z,12.32
2023-01-17T20:31:21.063Z,13.02
2023-01-17T20:33:50.443Z,13.82
2023-01-17T20:36:19.702Z,10.73
2023-01-17T20:38:49.214Z,12.15
2023-01-17T20:41:19.296Z,13.55
2023-01-17T20:43:48.589Z,15.00
2023-01-17T20:46:17.827Z,11.25
2023-01-17T20:48:46.688Z,10.00
2023-01-17T20:51:14.931Z,10.50
2023-01-17T20:53:43.504Z,17.10
2023-01-17T20:56:13.213Z,12.95
2023-01-17T20:58:40.688Z,10.30
2023-01-17T21:01:12.931Z,13.32
2023-01-17T21:03:40.266Z,12.32
2023-01-17T21:06:09.866Z,12.50
2023-01-17T21:11:06.065Z,11.98
2023-01-17T21:13:33.240Z,11.95
2023-01-17T21:16:00.684Z,15.02
2023-01-17T21:18:31.881Z,15.70
2023-01-17T21:21:08.235Z,17.60
2023-01-17T21:23:35.954Z,15.13
2023-01-17T21:26:03.468Z,13.45
2023-01-17T21:28:33.158Z,11.45
2023-01-17T21:31:00.495Z,10.55
2023-01-17T21:33:29.424Z,9.88
2023-01-17T21:36:07.763Z,11.52
2023-01-17T21:38:34.646Z,10.75
2023-01-17T21:41:01.366Z,9.80
2023-01-17T21:43:28.643Z,10.90
2023-01-17T21:45:55.703Z,11.82
2023-01-17T21:48:23.432Z,9.45
2023-01-17T21:50:52.674Z,12.98
2023-01-17T21:53:19.341Z,15.90
2023-01-17T21:56:04.834Z,17.48
2023-01-17T21:58:46.346Z,13.40
2023-01-17T22:01:22.348Z,15.88
2023-01-17T22:03:58.169Z,15.52
2023-01-17T22:06:27.468Z,15.32
2023-01-17T22:08:54.203Z,11.18
2023-01-17T22:11:23.815Z,13.13
2023-01-17T22:16:26.013Z,14.82
2023-01-17T22:18:52.763Z,12.25
2023-01-17T22:21:25.434Z,13.57
2023-01-17T22:23:54.413Z,10.43
2023-01-17T22:26:24.495Z,14.45
2023-01-17T22:28:51.253Z,12.70
2023-01-17T22:31:24.236Z,12.70
2023-01-17T22:33:55.179Z,10.32
2023-01-17T22:36:22.358Z,13.27
2023-01-17T22:38:49.402Z,11.90
2023-01-17T22:41:20.316Z,10.32
2023-01-17T22:43:49.413Z,10.43
2023-01-17T22:46:24.953Z,9.30
2023-01-17T22:48:52.926Z,11.30
2023-01-17T22:51:21.254Z,10.93
2023-01-17T22:53:50.122Z,11.30
2023-01-17T22:56:24.723Z,19.63
2023-01-17T22:58:51.340Z,9.25
2023-01-17T23:01:23.173Z,11.27
2023-01-17T23:03:56.047Z,9.45
2023-01-17T23:06:28.306Z,18.73
2023-01-17T23:08:57.358Z,10.88
2023-01-17T23:11:41.095Z,10.68
2023-01-17T23:14:20.136Z,7.35
2023-01-17T23:17:17.116Z,8.27
2023-01-17T23:19:49.366Z,11.20
2023-01-17T23:22:24.524Z,10.35
2023-01-17T23:24:55.892Z,11.23
2023-01-17T23:27:46.645Z,10.65
2023-01-17T23:30:15.945Z,11.05
2023-01-17T23:32:46.813Z,11.65
2023-01-17T23:35:14.719Z,12.13
2023-01-17T23:37:59.574Z,9.68
2023-01-17T23:40:26.246Z,11.82
2023-01-17T23:43:11.540Z,14.40
2023-01-17T23:45:39.235Z,10.55
2023-01-17T23:48:09.683Z,13.00
2023-01-17T23:50:38.348Z,9.93
2023-01-17T23:53:07.589Z,9.85
2023-01-17T23:55:40.170Z,10.77
2023-01-17T23:58:08.524Z,14.60
